Time;durP1;ratioP1;P1;durP2;ratioP2;P2;SDS_P1;SDS_P2;PMS_P1;PMS_P2;Temp;Humidity;BMP_temperature;BMP_pressure;BME280_temperature;BME280_humidity;BME280_pressure;Samples;Min_cycle;Max_cycle;Signal;HPM_P1;HPM_P2
2023/05/20 00:00:27;;;;;;;1.83;1.60;;;;;;;;;;5051725;28;20109;-82
2023/05/20 00:02:54;;;;;;;2.30;1.48;;;;;;;;;;5042849;28;20056;-82
2023/05/20 00:05:20;;;;;;;2.78;1.40;;;;;;;;;;5033473;28;20053;-82
2023/05/20 00:07:47;;;;;;;1.60;1.40;;;;;;;;;;5033460;28;20045;-82
2023/05/20 00:10:14;;;;;;;2.60;1.75;;;;;;;;;;5033970;28;20056;-82
2023/05/20 00:12:42;;;;;;;2.88;1.50;;;;;;;;;;5034300;28;20140;-82
2023/05/20 00:15:10;;;;;;;3.83;1.48;;;;;;;;;;5033822;28;20049;-82
2023/05/20 00:17:37;;;;;;;2.33;1.25;;;;;;;;;;5034257;28;20084;-82
2023/05/20 00:20:04;;;;;;;3.85;1.67;;;;;;;;;;5034559;28;20050;-82
2023/05/20 00:22:31;;;;;;;3.33;1.30;;;;;;;;;;5034019;28;20168;-82
2023/05/20 00:24:58;;;;;;;1.88;1.30;;;;;;;;;;5034100;28;20208;-82
2023/05/20 00:27:24;;;;;;;1.88;1.50;;;;;;;;;;5033662;28;20049;-82
2023/05/20 00:29:52;;;;;;;2.88;1.40;;;;;;;;;;5033240;28;20046;-82
2023/05/20 00:32:18;;;;;;;1.60;1.30;;;;;;;;;;5033116;28;20056;-82
2023/05/20 00:34:45;;;;;;;2.08;1.55;;;;;;;;;;5033100;28;20498;-81
2023/05/20 00:37:11;;;;;;;2.22;1.65;;;;;;;;;;5033982;28;20425;-81
2023/05/20 00:39:38;;;;;;;2.20;1.50;;;;;;;;;;5033726;28;20068;-81
2023/05/20 00:42:04;;;;;;;2.58;1.52;;;;;;;;;;5033297;28;20045;-82
2023/05/20 00:44:31;;;;;;;1.92;1.50;;;;;;;;;;5033698;28;20049;-81
2023/05/20 00:46:59;;;;;;;5.13;1.92;;;;;;;;;;5033090;28;20053;-81
2023/05/20 00:49:25;;;;;;;3.83;2.45;;;;;;;;;;5033059;28;20517;-80
2023/05/20 00:51:52;;;;;;;3.00;1.48;;;;;;;;;;5032852;28;20053;-81
2023/05/20 00:54:19;;;;;;;2.20;1.65;;;;;;;;;;5033373;28;20049;-81
2023/05/20 00:56:46;;;;;;;3.67;1.70;;;;;;;;;;5032769;28;20065;-81
2023/05/20 00:59:12;;;;;;;2.95;1.55;;;;;;;;;;5033638;28;20076;-82
2023/05/20 01:01:39;;;;;;;3.60;1.40;;;;;;;;;;5032850;28;20257;-81
2023/05/20 01:04:07;;;;;;;4.25;1.70;;;;;;;;;;5033220;28;20049;-81
2023/05/20 01:06:33;;;;;;;2.65;1.55;;;;;;;;;;5032421;28;20448;-81
2023/05/20 01:09:00;;;;;;;3.15;1.40;;;;;;;;;;5032307;28;20052;-82
2023/05/20 01:11:36;;;;;;;5.78;1.85;;;;;;;;;;5032344;28;20155;-81
2023/05/20 01:14:07;;;;;;;2.05;1.63;;;;;;;;;;5033327;28;20045;-81
2023/05/20 01:16:36;;;;;;;3.63;1.40;;;;;;;;;;5033167;28;20504;-81
2023/05/20 01:19:03;;;;;;;2.72;1.77;;;;;;;;;;5035756;28;20053;-81
2023/05/20 01:21:33;;;;;;;2.28;1.65;;;;;;;;;;5038652;28;20049;-81
2023/05/20 01:24:04;;;;;;;3.72;1.38;;;;;;;;;;5036704;28;20049;-82
2023/05/20 01:26:32;;;;;;;2.17;1.50;;;;;;;;;;5037260;28;20045;-81
2023/05/20 01:29:03;;;;;;;2.97;1.67;;;;;;;;;;5037067;28;20459;-81
2023/05/20 01:31:33;;;;;;;2.60;1.60;;;;;;;;;;5036518;28;20088;-81
2023/05/20 01:34:01;;;;;;;2.60;1.65;;;;;;;;;;5036376;28;20049;-81
2023/05/20 01:36:30;;;;;;;5.00;1.60;;;;;;;;;;5036118;28;20058;-81
2023/05/20 01:38:58;;;;;;;2.58;1.48;;;;;;;;;;5035797;28;20068;-81
2023/05/20 01:41:27;;;;;;;3.08;1.73;;;;;;;;;;5036241;28;20049;-81
2023/05/20 01:43:55;;;;;;;2.30;1.73;;;;;;;;;;5036660;28;20141;-81
2023/05/20 01:46:21;;;;;;;3.10;1.40;;;;;;;;;;5036579;28;20052;-81
2023/05/20 01:48:48;;;;;;;2.53;1.40;;;;;;;;;;5038381;28;20057;-81
2023/05/20 01:51:14;;;;;;;3.90;1.70;;;;;;;;;;5039905;28;20512;-81
2023/05/20 01:53:41;;;;;;;1.90;1.35;;;;;;;;;;5040715;28;20425;-82
2023/05/20 01:56:07;;;;;;;3.05;1.85;;;;;;;;;;5040289;28;20052;-81
2023/05/20 01:58:36;;;;;;;2.78;1.80;;;;;;;;;;5041107;28;20049;-82
2023/05/20 02:01:02;;;;;;;2.80;1.88;;;;;;;;;;5040797;28;20077;-82
2023/05/20 02:03:29;;;;;;;1.77;1.30;;;;;;;;;;5041932;28;20049;-82
2023/05/20 02:05:55;;;;;;;6.07;1.77;;;;;;;;;;5043099;28;20059;-81
2023/05/20 02:08:22;;;;;;;4.20;1.90;;;;;;;;;;5039792;28;20046;-81
2023/05/20 02:10:48;;;;;;;2.40;1.67;;;;;;;;;;5038859;28;20065;-81
2023/05/20 02:13:15;;;;;;;1.92;1.60;;;;;;;;;;5039615;28;20049;-80
2023/05/20 02:15:43;;;;;;;3.45;1.73;;;;;;;;;;5038468;28;20622;-82
2023/05/20 02:18:11;;;;;;;1.70;1.55;;;;;;;;;;5039189;28;20128;-81
2023/05/20 02:20:37;;;;;;;2.50;1.80;;;;;;;;;;5038598;28;20087;-81
2023/05/20 02:23:04;;;;;;;2.47;1.70;;;;;;;;;;5039159;28;20048;-82
2023/05/20 02:25:31;;;;;;;3.15;1.88;;;;;;;;;;5038210;28;20057;-81
2023/05/20 02:27:57;;;;;;;3.55;1.60;;;;;;;;;;5039063;28;20049;-81
2023/05/20 02:30:24;;;;;;;4.15;2.08;;;;;;;;;;5037634;28;20049;-82
2023/05/20 02:32:52;;;;;;;1.77;1.50;;;;;;;;;;5038297;28;20084;-81
2023/05/20 02:35:18;;;;;;;4.25;1.77;;;;;;;;;;5037996;28;20046;-82
2023/05/20 02:37:47;;;;;;;3.08;1.70;;;;;;;;;;5037834;28;20045;-82
2023/05/20 02:40:13;;;;;;;4.13;2.10;;;;;;;;;;5038747;28;20140;-82
2023/05/20 02:42:40;;;;;;;3.65;1.85;;;;;;;;;;5038556;28;20058;-81
2023/05/20 02:45:08;;;;;;;2.70;1.80;;;;;;;;;;5039234;28;20045;-82
2023/05/20 02:47:34;;;;;;;3.55;1.70;;;;;;;;;;5039214;28;20057;-81
2023/05/20 02:50:02;;;;;;;2.58;1.80;;;;;;;;;;5039247;28;20053;-81
2023/05/20 02:52:29;;;;;;;3.05;1.80;;;;;;;;;;5039171;28;20049;-82
2023/05/20 02:54:55;;;;;;;2.05;1.58;;;;;;;;;;5038926;28;20048;-82
2023/05/20 02:57:22;;;;;;;3.58;2.20;;;;;;;;;;5038900;28;20046;-81
2023/05/20 02:59:48;;;;;;;3.00;2.25;;;;;;;;;;5039437;28;20042;-81
2023/05/20 03:02:15;;;;;;;2.33;1.80;;;;;;;;;;5040432;28;20413;-82
2023/05/20 03:04:42;;;;;;;1.85;1.58;;;;;;;;;;5040735;28;20049;-82
2023/05/20 03:07:10;;;;;;;3.47;1.70;;;;;;;;;;5040984;28;20045;-81
2023/05/20 03:09:36;;;;;;;3.47;1.75;;;;;;;;;;5041291;28;20041;-81
2023/05/20 03:12:03;;;;;;;2.67;2.00;;;;;;;;;;5042659;28;20042;-81
2023/05/20 03:14:30;;;;;;;3.28;1.77;;;;;;;;;;5043223;28;20056;-82
2023/05/20 03:16:56;;;;;;;4.60;1.70;;;;;;;;;;5047499;28;20336;-81
2023/05/20 03:19:23;;;;;;;2.42;1.60;;;;;;;;;;5053096;28;20045;-80
2023/05/20 03:21:50;;;;;;;3.55;1.83;;;;;;;;;;5052314;28;20055;-80
2023/05/20 03:24:18;;;;;;;2.15;1.70;;;;;;;;;;5047668;28;20041;-80
2023/05/20 03:26:45;;;;;;;7.00;1.90;;;;;;;;;;5048629;28;20045;-81
2023/05/20 03:29:12;;;;;;;3.65;1.83;;;;;;;;;;5046956;28;20067;-80
2023/05/20 03:31:38;;;;;;;2.92;1.77;;;;;;;;;;5048175;28;20148;-81
2023/05/20 03:34:05;;;;;;;2.75;2.00;;;;;;;;;;5047049;28;20041;-81
2023/05/20 03:36:31;;;;;;;3.63;2.03;;;;;;;;;;5037689;28;20587;-81
2023/05/20 03:38:58;;;;;;;2.55;1.90;;;;;;;;;;5037040;28;20047;-80
2023/05/20 03:41:26;;;;;;;2.33;1.73;;;;;;;;;;5037257;28;20056;-81
2023/05/20 03:43:52;;;;;;;3.25;2.10;;;;;;;;;;5036891;28;20041;-81
2023/05/20 03:46:19;;;;;;;2.70;2.03;;;;;;;;;;5036945;28;20050;-81
2023/05/20 03:48:45;;;;;;;2.47;1.85;;;;;;;;;;5037645;28;20227;-81
2023/05/20 03:51:12;;;;;;;2.92;1.90;;;;;;;;;;5037131;28;20049;-80
2023/05/20 03:53:38;;;;;;;3.10;1.80;;;;;;;;;;5036948;28;20048;-80
2023/05/20 03:56:05;;;;;;;3.03;1.90;;;;;;;;;;5036750;28;20053;-81
2023/05/20 03:58:34;;;;;;;2.92;1.70;;;;;;;;;;5036936;28;20056;-80
2023/05/20 04:01:00;;;;;;;2.55;2.05;;;;;;;;;;5036329;28;20048;-81
2023/05/20 04:03:27;;;;;;;2.72;2.13;;;;;;;;;;5038236;28;20493;-81
2023/05/20 04:05:54;;;;;;;2.92;2.00;;;;;;;;;;5037306;28;20048;-81
2023/05/20 04:08:20;;;;;;;3.42;2.25;;;;;;;;;;5037789;28;20049;-81
2023/05/20 04:10:47;;;;;;;2.92;2.00;;;;;;;;;;5036814;28;20049;-81
2023/05/20 04:13:14;;;;;;;4.22;1.95;;;;;;;;;;5037166;28;20052;-81
2023/05/20 04:15:42;;;;;;;4.78;2.17;;;;;;;;;;5036665;28;20493;-81
2023/05/20 04:18:09;;;;;;;2.50;2.03;;;;;;;;;;5037176;28;20057;-81
2023/05/20 04:20:35;;;;;;;2.85;2.28;;;;;;;;;;5036633;28;20049;-81
2023/05/20 04:23:02;;;;;;;2.95;2.10;;;;;;;;;;5037038;28;20058;-81
2023/05/20 04:25:28;;;;;;;2.47;1.80;;;;;;;;;;5037347;28;20041;-80
2023/05/20 04:27:56;;;;;;;3.17;2.08;;;;;;;;;;5037184;28;20068;-80
2023/05/20 04:30:22;;;;;;;2.85;2.03;;;;;;;;;;5037048;28;20092;-80
2023/05/20 04:32:51;;;;;;;4.13;2.17;;;;;;;;;;5037069;28;20053;-80
2023/05/20 04:35:18;;;;;;;2.75;2.08;;;;;;;;;;5036965;28;20417;-81
2023/05/20 04:37:46;;;;;;;5.35;2.20;;;;;;;;;;5036330;28;20185;-81
2023/05/20 04:40:13;;;;;;;3.33;2.40;;;;;;;;;;5037191;28;20140;-81
2023/05/20 04:42:40;;;;;;;2.05;1.80;;;;;;;;;;5037558;28;20045;-81
2023/05/20 04:45:07;;;;;;;2.85;2.47;;;;;;;;;;5037619;28;20045;-80
2023/05/20 04:47:37;;;;;;;2.38;2.03;;;;;;;;;;5038082;28;20046;-81
2023/05/20 04:50:07;;;;;;;4.30;2.00;;;;;;;;;;5037438;28;20045;-81
2023/05/20 04:52:34;;;;;;;3.92;2.13;;;;;;;;;;5037881;28;20090;-81
2023/05/20 04:55:01;;;;;;;2.17;1.90;;;;;;;;;;5042540;28;20128;-81
2023/05/20 04:57:28;;;;;;;3.50;1.92;;;;;;;;;;5042530;28;20046;-81
2023/05/20 04:59:57;;;;;;;3.90;1.92;;;;;;;;;;5045263;28;20052;-81
2023/05/20 05:02:24;;;;;;;3.08;2.15;;;;;;;;;;5047356;28;20042;-80
2023/05/20 05:04:50;;;;;;;3.05;2.28;;;;;;;;;;5044498;28;20488;-81
2023/05/20 05:07:18;;;;;;;2.92;2.00;;;;;;;;;;5041248;28;20053;-81
2023/05/20 05:09:45;;;;;;;2.00;1.70;;;;;;;;;;5039953;28;20090;-81
2023/05/20 05:12:11;;;;;;;2.92;1.95;;;;;;;;;;5040867;28;20047;-81
2023/05/20 05:14:38;;;;;;;1.90;1.70;;;;;;;;;;5040345;28;20057;-81
2023/05/20 05:17:04;;;;;;;3.42;1.88;;;;;;;;;;5040856;28;20056;-80
2023/05/20 05:19:31;;;;;;;2.42;1.98;;;;;;;;;;5039755;28;20063;-80
2023/05/20 05:21:57;;;;;;;2.33;1.95;;;;;;;;;;5039869;28;20051;-81
2023/05/20 05:24:25;;;;;;;2.78;2.30;;;;;;;;;;5039765;28;20052;-81
2023/05/20 05:26:53;;;;;;;2.08;1.88;;;;;;;;;;5040542;28;20052;-80
2023/05/20 05:29:20;;;;;;;2.50;2.00;;;;;;;;;;5039685;28;20045;-80
2023/05/20 05:31:46;;;;;;;3.05;1.95;;;;;;;;;;5039966;28;20053;-80
2023/05/20 05:34:13;;;;;;;2.42;2.10;;;;;;;;;;5040666;28;20061;-80
2023/05/20 05:36:40;;;;;;;3.65;2.05;;;;;;;;;;5040817;28;20049;-81
2023/05/20 05:39:07;;;;;;;2.45;1.88;;;;;;;;;;5040326;28;20046;-81
2023/05/20 05:41:35;;;;;;;2.38;2.17;;;;;;;;;;5039954;28;20049;-81
2023/05/20 05:44:01;;;;;;;2.83;2.20;;;;;;;;;;5040448;28;20054;-81
2023/05/20 05:46:28;;;;;;;3.13;2.13;;;;;;;;;;5040814;28;20052;-81
2023/05/20 05:48:54;;;;;;;2.65;1.90;;;;;;;;;;5040747;28;20056;-81
2023/05/20 05:51:21;;;;;;;4.82;2.05;;;;;;;;;;5040011;28;20045;-81
2023/05/20 05:53:47;;;;;;;3.35;2.35;;;;;;;;;;5040077;28;20049;-80
2023/05/20 05:56:14;;;;;;;3.47;2.28;;;;;;;;;;5038798;28;20049;-81
2023/05/20 05:58:42;;;;;;;2.92;2.28;;;;;;;;;;5035799;28;20056;-81
2023/05/20 06:01:08;;;;;;;3.83;2.22;;;;;;;;;;5035570;28;20068;-81
2023/05/20 06:03:35;;;;;;;3.55;2.20;;;;;;;;;;5036404;28;20048;-83
2023/05/20 06:06:01;;;;;;;5.63;2.13;;;;;;;;;;5036256;28;20402;-81
2023/05/20 06:08:28;;;;;;;5.15;2.03;;;;;;;;;;5036685;28;20085;-81
2023/05/20 06:10:55;;;;;;;2.55;2.30;;;;;;;;;;5036303;28;20092;-82
2023/05/20 06:13:21;;;;;;;2.60;2.30;;;;;;;;;;5036718;28;20325;-82
2023/05/20 06:15:50;;;;;;;2.65;2.10;;;;;;;;;;5036796;28;20049;-81
2023/05/20 06:18:17;;;;;;;4.88;2.10;;;;;;;;;;5037046;28;20049;-82
2023/05/20 06:20:43;;;;;;;4.53;2.00;;;;;;;;;;5039071;28;20045;-82
2023/05/20 06:23:10;;;;;;;2.90;2.20;;;;;;;;;;5038261;28;20505;-82
2023/05/20 06:25:36;;;;;;;2.88;2.10;;;;;;;;;;5038293;28;20046;-82
2023/05/20 06:28:03;;;;;;;2.80;2.10;;;;;;;;;;5038474;28;20060;-81
2023/05/20 06:30:29;;;;;;;3.67;2.50;;;;;;;;;;5038752;28;20046;-81
2023/05/20 06:32:57;;;;;;;3.53;2.20;;;;;;;;;;5039069;28;20050;-81
2023/05/20 06:35:24;;;;;;;6.70;2.45;;;;;;;;;;5040751;28;20052;-81
2023/05/20 06:37:50;;;;;;;4.07;2.10;;;;;;;;;;5050966;28;20101;-81
2023/05/20 06:40:18;;;;;;;2.85;2.15;;;;;;;;;;5054857;28;20050;-81
2023/05/20 06:42:44;;;;;;;4.93;2.25;;;;;;;;;;5042310;28;20497;-81
2023/05/20 06:45:12;;;;;;;3.35;2.40;;;;;;;;;;5037218;28;20108;-81
2023/05/20 06:47:39;;;;;;;3.35;2.58;;;;;;;;;;5037157;28;20053;-82
2023/05/20 06:50:07;;;;;;;2.85;2.20;;;;;;;;;;5036608;28;20041;-81
2023/05/20 06:52:34;;;;;;;2.80;2.47;;;;;;;;;;5039303;28;20053;-81
2023/05/20 06:55:00;;;;;;;4.13;2.33;;;;;;;;;;5040101;28;20041;-81
2023/05/20 06:57:27;;;;;;;2.75;2.30;;;;;;;;;;5040041;28;20045;-82
2023/05/20 06:59:53;;;;;;;2.53;2.30;;;;;;;;;;5040112;28;20052;-82
2023/05/20 07:02:21;;;;;;;2.97;2.50;;;;;;;;;;5043019;28;20052;-82
2023/05/20 07:04:48;;;;;;;3.78;2.40;;;;;;;;;;5043242;28;20111;-82
2023/05/20 07:07:16;;;;;;;3.25;2.78;;;;;;;;;;5040654;28;20053;-82
2023/05/20 07:09:43;;;;;;;5.30;2.50;;;;;;;;;;5039643;28;20057;-81
2023/05/20 07:12:09;;;;;;;3.10;2.40;;;;;;;;;;5040838;28;20045;-82
2023/05/20 07:14:36;;;;;;;2.78;2.22;;;;;;;;;;5039130;28;20128;-82
2023/05/20 07:17:04;;;;;;;5.90;2.60;;;;;;;;;;5037963;28;20060;-82
2023/05/20 07:19:30;;;;;;;3.50;2.70;;;;;;;;;;5038615;28;20049;-82
2023/05/20 07:21:57;;;;;;;6.95;2.88;;;;;;;;;;5039333;28;20061;-82
2023/05/20 07:24:25;;;;;;;3.90;2.47;;;;;;;;;;5038444;28;20049;-82
2023/05/20 07:26:52;;;;;;;3.28;2.30;;;;;;;;;;5038582;28;20053;-82
2023/05/20 07:29:18;;;;;;;4.40;2.50;;;;;;;;;;5038573;28;20389;-82
2023/05/20 07:31:45;;;;;;;3.47;2.65;;;;;;;;;;5038122;28;20049;-82
2023/05/20 07:34:13;;;;;;;3.72;2.58;;;;;;;;;;5038784;28;20049;-82
2023/05/20 07:36:40;;;;;;;4.32;3.00;;;;;;;;;;5037851;28;20484;-82
2023/05/20 07:39:07;;;;;;;4.00;2.50;;;;;;;;;;5039020;28;20080;-82
2023/05/20 07:41:35;;;;;;;2.90;2.35;;;;;;;;;;5037882;28;20093;-82
2023/05/20 07:44:04;;;;;;;2.92;2.30;;;;;;;;;;5038846;28;20049;-82
2023/05/20 07:46:31;;;;;;;2.90;2.20;;;;;;;;;;5038460;28;20041;-82
2023/05/20 07:48:57;;;;;;;2.80;2.45;;;;;;;;;;5072950;22;20049;-83
2023/05/20 07:51:24;;;;;;;3.78;2.78;;;;;;;;;;5058745;28;20049;-81
2023/05/20 07:53:51;;;;;;;3.58;2.70;;;;;;;;;;5058630;28;20099;-82
2023/05/20 07:56:17;;;;;;;3.95;2.85;;;;;;;;;;5058849;28;20041;-83
2023/05/20 07:58:52;;;;;;;4.53;2.70;;;;;;;;;;5057904;28;20109;-83
2023/05/20 08:01:19;;;;;;;4.47;2.70;;;;;;;;;;5058449;28;20052;-81
2023/05/20 08:03:45;;;;;;;5.45;2.83;;;;;;;;;;5058712;28;20481;-82
2023/05/20 08:06:12;;;;;;;4.13;3.05;;;;;;;;;;5059362;28;20049;-81
2023/05/20 08:08:40;;;;;;;5.80;2.70;;;;;;;;;;5059488;28;20065;-80
2023/05/20 08:11:06;;;;;;;4.25;3.17;;;;;;;;;;5059419;28;20136;-82
2023/05/20 08:13:33;;;;;;;6.25;3.10;;;;;;;;;;5058574;28;20509;-81
2023/05/20 08:16:02;;;;;;;5.13;2.90;;;;;;;;;;5058722;28;20049;-82
2023/05/20 08:18:29;;;;;;;4.13;2.55;;;;;;;;;;5057224;28;20100;-81
2023/05/20 08:20:56;;;;;;;3.58;2.67;;;;;;;;;;5057184;28;20052;-82
2023/05/20 08:23:22;;;;;;;3.97;2.85;;;;;;;;;;5057556;28;20045;-81
2023/05/20 08:25:49;;;;;;;4.47;2.97;;;;;;;;;;5060696;28;20053;-79
2023/05/20 08:28:15;;;;;;;3.13;2.78;;;;;;;;;;5059394;28;20053;-80
2023/05/20 08:30:42;;;;;;;3.35;2.65;;;;;;;;;;5057754;28;20044;-81
2023/05/20 08:33:11;;;;;;;4.20;3.40;;;;;;;;;;5057628;28;20187;-82
2023/05/20 08:35:39;;;;;;;5.18;2.90;;;;;;;;;;5056263;28;20052;-80
2023/05/20 08:38:06;;;;;;;6.75;3.20;;;;;;;;;;5056560;28;20045;-83
2023/05/20 08:40:34;;;;;;;4.53;2.90;;;;;;;;;;5057592;28;20049;-80
2023/05/20 08:43:01;;;;;;;5.65;3.22;;;;;;;;;;5058512;28;20048;-81
2023/05/20 08:45:31;;;;;;;4.60;3.25;;;;;;;;;;5057723;28;20074;-82
2023/05/20 08:47:58;;;;;;;5.63;3.28;;;;;;;;;;5058204;28;20148;-79
2023/05/20 08:50:26;;;;;;;9.32;3.70;;;;;;;;;;5058144;28;20056;-80
2023/05/20 08:52:53;;;;;;;3.05;2.70;;;;;;;;;;5057777;28;20060;-81
2023/05/20 08:55:25;;;;;;;4.68;3.17;;;;;;;;;;5055759;28;20045;-82
2023/05/20 08:57:53;;;;;;;4.85;3.15;;;;;;;;;;5055629;28;20321;-80
2023/05/20 09:00:22;;;;;;;8.55;3.20;;;;;;;;;;5055369;28;20051;-82
2023/05/20 09:02:49;;;;;;;5.05;3.13;;;;;;;;;;5056618;28;20045;-81
2023/05/20 09:05:15;;;;;;;4.38;3.15;;;;;;;;;;5055946;28;20049;-82
2023/05/20 09:07:43;;;;;;;5.00;3.00;;;;;;;;;;5056439;28;20056;-81
2023/05/20 09:10:10;;;;;;;3.15;2.65;;;;;;;;;;5055423;28;20053;-81
2023/05/20 09:12:37;;;;;;;4.57;3.10;;;;;;;;;;5056236;28;20111;-80
2023/05/20 09:15:04;;;;;;;4.93;3.05;;;;;;;;;;5055883;28;20057;-82
2023/05/20 09:17:31;;;;;;;4.13;3.50;;;;;;;;;;5055510;28;20183;-82
2023/05/20 09:19:57;;;;;;;6.97;3.25;;;;;;;;;;5055433;28;20049;-81
2023/05/20 09:22:24;;;;;;;3.92;3.38;;;;;;;;;;5055363;28;20045;-80
2023/05/20 09:24:53;;;;;;;6.07;3.17;;;;;;;;;;5056358;28;20726;-81
2023/05/20 09:27:20;;;;;;;3.28;2.97;;;;;;;;;;5056561;28;20061;-80
2023/05/20 09:29:47;;;;;;;5.32;3.35;;;;;;;;;;5056121;28;20056;-80
2023/05/20 09:32:14;;;;;;;4.70;2.65;;;;;;;;;;5056089;28;20052;-81
2023/05/20 09:34:41;;;;;;;9.85;3.60;;;;;;;;;;5056015;28;20041;-80
2023/05/20 09:37:09;;;;;;;4.15;3.33;;;;;;;;;;5063442;28;20096;-81
2023/05/20 09:39:47;;;;;;;5.85;2.78;;;;;;;;;;5058199;28;20127;-82
2023/05/20 09:42:21;;;;;;;6.03;3.78;;;;;;;;;;5059428;28;20049;-82
2023/05/20 09:44:50;;;;;;;4.07;3.33;;;;;;;;;;5059588;28;20052;-83
2023/05/20 09:47:17;;;;;;;4.35;2.65;;;;;;;;;;5058800;28;20049;-79
2023/05/20 09:49:46;;;;;;;5.63;3.50;;;;;;;;;;5059067;28;20053;-79
2023/05/20 09:52:15;;;;;;;6.10;3.65;;;;;;;;;;5059403;28;20463;-79
2023/05/20 09:54:45;;;;;;;4.47;3.58;;;;;;;;;;5059039;28;20057;-79
2023/05/20 09:57:13;;;;;;;3.47;2.70;;;;;;;;;;5059691;28;20045;-79
2023/05/20 09:59:41;;;;;;;5.95;3.22;;;;;;;;;;5056661;28;20139;-79
2023/05/20 10:02:08;;;;;;;4.40;3.40;;;;;;;;;;5057450;28;20052;-81
2023/05/20 10:04:42;;;;;;;3.25;2.95;;;;;;;;;;5059713;28;20053;-81
2023/05/20 10:07:28;;;;;;;6.82;3.05;;;;;;;;;;5060880;28;20053;-81
2023/05/20 10:10:03;;;;;;;5.32;3.22;;;;;;;;;;5059530;28;20053;-80
2023/05/20 10:12:35;;;;;;;5.75;3.55;;;;;;;;;;5060515;28;20457;-79
2023/05/20 10:15:26;;;;;;;3.97;3.15;;;;;;;;;;5056416;28;20049;-79
2023/05/20 10:18:01;;;;;;;5.35;3.33;;;;;;;;;;5055972;28;20067;-78
2023/05/20 10:20:27;;;;;;;7.25;3.40;;;;;;;;;;5057181;28;20041;-79
2023/05/20 10:22:58;;;;;;;5.43;3.40;;;;;;;;;;5057944;28;20053;-78
2023/05/20 10:25:28;;;;;;;4.82;3.42;;;;;;;;;;5057317;28;20084;-78
2023/05/20 10:28:06;;;;;;;5.90;3.40;;;;;;;;;;5055354;28;20127;-77
2023/05/20 10:30:35;;;;;;;7.80;3.35;;;;;;;;;;5053893;28;20131;-78
2023/05/20 10:33:06;;;;;;;8.45;3.50;;;;;;;;;;5055892;28;20385;-78
2023/05/20 10:35:32;;;;;;;3.50;3.20;;;;;;;;;;5056972;28;20067;-76
2023/05/20 10:38:12;;;;;;;4.10;3.30;;;;;;;;;;5055187;28;20045;-77
2023/05/20 10:40:39;;;;;;;3.40;2.90;;;;;;;;;;5054382;28;20427;-77
2023/05/20 10:43:09;;;;;;;4.05;3.60;;;;;;;;;;5054476;28;20132;-77
2023/05/20 10:45:48;;;;;;;6.28;3.50;;;;;;;;;;5054292;28;20108;-77
2023/05/20 10:48:20;;;;;;;7.90;3.40;;;;;;;;;;5054296;28;20056;-77
2023/05/20 10:50:47;;;;;;;3.92;3.53;;;;;;;;;;5052541;28;20044;-77
2023/05/20 10:53:17;;;;;;;5.30;3.25;;;;;;;;;;5058096;28;20085;-77
2023/05/20 10:55:50;;;;;;;5.65;3.42;;;;;;;;;;5056619;28;20049;-78
2023/05/20 10:58:19;;;;;;;5.35;3.45;;;;;;;;;;5056575;28;20045;-78
2023/05/20 11:00:48;;;;;;;3.38;3.08;;;;;;;;;;5054495;28;20045;-78
2023/05/20 11:03:17;;;;;;;9.13;3.97;;;;;;;;;;5058030;28;20045;-78
2023/05/20 11:05:53;;;;;;;4.32;3.47;;;;;;;;;;5058615;28;20049;-78
2023/05/20 11:08:20;;;;;;;4.15;3.00;;;;;;;;;;5058660;28;20053;-78
2023/05/20 11:10:47;;;;;;;4.03;3.15;;;;;;;;;;5060157;28;20056;-77
2023/05/20 11:13:14;;;;;;;3.58;3.28;;;;;;;;;;5067067;28;20045;-78
2023/05/20 11:15:42;;;;;;;6.05;3.13;;;;;;;;;;5066343;28;20045;-78
2023/05/20 11:18:11;;;;;;;4.50;4.10;;;;;;;;;;5058065;28;20193;-78
2023/05/20 11:20:38;;;;;;;5.03;3.40;;;;;;;;;;5058106;28;20140;-78
2023/05/20 11:23:06;;;;;;;4.90;3.58;;;;;;;;;;5057359;28;20512;-78
2023/05/20 11:25:33;;;;;;;3.80;3.42;;;;;;;;;;5057538;28;20045;-77
2023/05/20 11:27:59;;;;;;;4.80;3.40;;;;;;;;;;5057572;28;20045;-78
2023/05/20 11:30:26;;;;;;;4.93;3.25;;;;;;;;;;5057878;28;20076;-78
2023/05/20 11:33:00;;;;;;;4.30;3.15;;;;;;;;;;5056954;28;20084;-78
2023/05/20 11:35:31;;;;;;;3.80;3.00;;;;;;;;;;5056800;28;20108;-78
2023/05/20 11:38:00;;;;;;;3.83;2.97;;;;;;;;;;5055890;28;20056;-78
2023/05/20 11:40:27;;;;;;;5.00;3.25;;;;;;;;;;5056606;28;20129;-77
2023/05/20 11:42:56;;;;;;;6.72;3.42;;;;;;;;;;5052817;28;20095;-78
2023/05/20 11:45:22;;;;;;;7.97;3.33;;;;;;;;;;5055919;28;20056;-77
2023/05/20 11:48:05;;;;;;;4.90;3.20;;;;;;;;;;5054805;28;20053;-76
2023/05/20 11:50:38;;;;;;;3.80;3.33;;;;;;;;;;5053096;28;20064;-77
2023/05/20 11:53:06;;;;;;;4.85;3.42;;;;;;;;;;5054973;28;20049;-77
2023/05/20 11:55:33;;;;;;;7.15;3.70;;;;;;;;;;5054830;28;20493;-77
2023/05/20 11:58:01;;;;;;;6.72;3.63;;;;;;;;;;5055370;28;20045;-77
2023/05/20 12:00:27;;;;;;;5.47;3.60;;;;;;;;;;5053006;28;20052;-77
2023/05/20 12:02:54;;;;;;;3.90;3.28;;;;;;;;;;5051679;28;20041;-76
2023/05/20 12:05:21;;;;;;;3.30;3.00;;;;;;;;;;5051884;28;20122;-79
2023/05/20 12:07:49;;;;;;;3.53;3.17;;;;;;;;;;5052623;28;20420;-77
2023/05/20 12:10:16;;;;;;;4.03;3.20;;;;;;;;;;5053956;28;20048;-77
2023/05/20 12:12:43;;;;;;;5.57;3.80;;;;;;;;;;5055276;28;20049;-77
2023/05/20 12:15:11;;;;;;;3.45;2.97;;;;;;;;;;5053992;28;20063;-78
2023/05/20 12:17:45;;;;;;;4.82;4.32;;;;;;;;;;5052691;28;20049;-78
2023/05/20 12:20:14;;;;;;;5.65;3.80;;;;;;;;;;5054488;28;20049;-78
2023/05/20 12:22:40;;;;;;;5.15;3.28;;;;;;;;;;5055055;28;20106;-78
2023/05/20 12:25:11;;;;;;;4.82;2.97;;;;;;;;;;5055223;28;20051;-78
2023/05/20 12:27:37;;;;;;;4.20;3.30;;;;;;;;;;5055532;28;20110;-77
2023/05/20 12:30:05;;;;;;;4.43;3.53;;;;;;;;;;5054896;28;20045;-77
2023/05/20 12:32:32;;;;;;;4.10;3.70;;;;;;;;;;5055274;28;20137;-77
2023/05/20 12:34:58;;;;;;;4.40;3.13;;;;;;;;;;5054937;28;20084;-77
2023/05/20 12:37:25;;;;;;;5.25;3.38;;;;;;;;;;5055223;28;20062;-77
2023/05/20 12:39:52;;;;;;;8.80;3.45;;;;;;;;;;5055031;28;20045;-77
2023/05/20 12:42:20;;;;;;;5.20;3.33;;;;;;;;;;5054980;28;20041;-77
2023/05/20 12:44:47;;;;;;;4.95;3.38;;;;;;;;;;5054236;28;20087;-77
2023/05/20 12:47:13;;;;;;;4.93;3.72;;;;;;;;;;5051734;28;20064;-77
2023/05/20 12:49:40;;;;;;;5.78;3.40;;;;;;;;;;5051508;28;20428;-77
2023/05/20 12:52:07;;;;;;;6.68;3.63;;;;;;;;;;5052385;28;20053;-77
2023/05/20 12:54:33;;;;;;;4.97;3.20;;;;;;;;;;5052712;28;20059;-77
2023/05/20 12:57:00;;;;;;;4.00;3.60;;;;;;;;;;5052996;28;20114;-80
2023/05/20 12:59:28;;;;;;;3.78;3.25;;;;;;;;;;5057088;28;20048;-77
2023/05/20 13:01:55;;;;;;;3.28;2.97;;;;;;;;;;5056944;28;20048;-78
2023/05/20 13:04:23;;;;;;;4.80;3.00;;;;;;;;;;5057717;28;20079;-77
2023/05/20 13:06:50;;;;;;;3.42;2.75;;;;;;;;;;5057851;28;20505;-78
2023/05/20 13:09:20;;;;;;;4.20;3.30;;;;;;;;;;5058363;28;20064;-78
2023/05/20 13:11:47;;;;;;;5.05;3.05;;;;;;;;;;5057332;28;20041;-78
2023/05/20 13:14:13;;;;;;;3.10;2.80;;;;;;;;;;5059656;28;20420;-78
2023/05/20 13:16:42;;;;;;;3.60;2.92;;;;;;;;;;5063660;28;20113;-78
2023/05/20 13:19:11;;;;;;;3.85;2.95;;;;;;;;;;5062250;28;20523;-79
2023/05/20 13:21:38;;;;;;;5.30;3.50;;;;;;;;;;5063923;28;20045;-76
2023/05/20 13:24:05;;;;;;;3.38;3.05;;;;;;;;;;5064267;28;20064;-78
2023/05/20 13:26:32;;;;;;;3.33;2.78;;;;;;;;;;5065292;28;20048;-77
2023/05/20 13:28:58;;;;;;;3.40;2.90;;;;;;;;;;5061753;28;20045;-76
2023/05/20 13:31:25;;;;;;;3.20;2.83;;;;;;;;;;5060854;28;20180;-77
2023/05/20 13:33:54;;;;;;;4.40;3.13;;;;;;;;;;5058673;28;20049;-77
2023/05/20 13:36:20;;;;;;;3.40;3.10;;;;;;;;;;5060037;28;20547;-77
2023/05/20 13:38:47;;;;;;;5.00;2.90;;;;;;;;;;5061514;28;20044;-76
2023/05/20 13:41:14;;;;;;;4.80;2.97;;;;;;;;;;5060449;28;20045;-78
2023/05/20 13:43:41;;;;;;;4.13;3.10;;;;;;;;;;5060047;28;20064;-77
2023/05/20 13:46:07;;;;;;;5.50;3.03;;;;;;;;;;5059446;28;20052;-78
2023/05/20 13:48:34;;;;;;;4.72;2.90;;;;;;;;;;5071716;22;20049;-79
2023/05/20 13:51:02;;;;;;;7.85;3.85;;;;;;;;;;5058600;28;20045;-78
2023/05/20 13:53:29;;;;;;;4.90;3.10;;;;;;;;;;5058983;28;20049;-78
2023/05/20 13:55:55;;;;;;;3.22;2.92;;;;;;;;;;5058671;28;20045;-78
2023/05/20 13:58:22;;;;;;;4.28;2.97;;;;;;;;;;5059210;28;20060;-78
2023/05/20 14:00:48;;;;;;;4.72;3.08;;;;;;;;;;5057783;28;20057;-78
2023/05/20 14:03:15;;;;;;;4.00;2.65;;;;;;;;;;5058141;28;20041;-78
2023/05/20 14:05:41;;;;;;;4.35;3.10;;;;;;;;;;5057296;28;20041;-78
2023/05/20 14:08:09;;;;;;;5.78;3.13;;;;;;;;;;5058343;28;20060;-79
2023/05/20 14:10:36;;;;;;;3.35;2.53;;;;;;;;;;5057559;28;20044;-78
2023/05/20 14:13:02;;;;;;;4.15;2.63;;;;;;;;;;5058974;28;20488;-78
2023/05/20 14:15:29;;;;;;;3.45;3.13;;;;;;;;;;5059012;28;20395;-79
2023/05/20 14:17:56;;;;;;;5.72;2.90;;;;;;;;;;5060222;28;20040;-79
2023/05/20 14:20:23;;;;;;;3.95;3.00;;;;;;;;;;5058442;28;20048;-79
2023/05/20 14:22:50;;;;;;;2.88;2.60;;;;;;;;;;5059383;28;20052;-79
2023/05/20 14:25:18;;;;;;;2.72;2.42;;;;;;;;;;5059119;28;20067;-78
2023/05/20 14:27:45;;;;;;;3.58;3.28;;;;;;;;;;5059803;28;20049;-78
2023/05/20 14:30:12;;;;;;;3.00;2.67;;;;;;;;;;5059372;28;20504;-79
2023/05/20 14:32:38;;;;;;;3.50;2.95;;;;;;;;;;5061758;28;20052;-79
2023/05/20 14:35:06;;;;;;;5.55;3.00;;;;;;;;;;5060985;28;20044;-79
2023/05/20 14:37:32;;;;;;;3.90;2.90;;;;;;;;;;5057083;28;20056;-78
2023/05/20 14:40:00;;;;;;;3.80;3.00;;;;;;;;;;5056662;28;20053;-78
2023/05/20 14:42:28;;;;;;;3.70;3.20;;;;;;;;;;5057193;28;20440;-78
2023/05/20 14:44:54;;;;;;;3.50;3.20;;;;;;;;;;5057857;28;20049;-78